sensor_id;sensor_type;location;lat;lon;timestamp;P1;durP1;ratioP1;P2;durP2;ratioP2
8323;SDS011;4199;50.802;6.772;2023-04-30T00:01:25;40.83;;;31.03;;
8323;SDS011;4199;50.802;6.772;2023-04-30T00:03:51;40.97;;;31.20;;
8323;SDS011;4199;50.802;6.772;2023-04-30T00:06:18;39.67;;;30.67;;
8323;SDS011;4199;50.802;6.772;2023-04-30T00:08:44;38.23;;;30.33;;
8323;SDS011;4199;50.802;6.772;2023-04-30T00:11:10;42.20;;;31.77;;
8323;SDS011;4199;50.802;6.772;2023-04-30T00:13:36;39.17;;;29.67;;
8323;SDS011;4199;50.802;6.772;2023-04-30T00:16:03;39.47;;;31.23;;
8323;SDS011;4199;50.802;6.772;2023-04-30T00:18:29;43.87;;;31.87;;
8323;SDS011;4199;50.802;6.772;2023-04-30T00:20:55;40.30;;;30.57;;
8323;SDS011;4199;50.802;6.772;2023-04-30T00:23:22;38.87;;;30.50;;
8323;SDS011;4199;50.802;6.772;2023-04-30T00:25:48;39.57;;;31.07;;
8323;SDS011;4199;50.802;6.772;2023-04-30T00:28:14;43.77;;;31.17;;
8323;SDS011;4199;50.802;6.772;2023-04-30T00:30:41;38.47;;;29.53;;
8323;SDS011;4199;50.802;6.772;2023-04-30T00:33:07;39.73;;;30.60;;
8323;SDS011;4199;50.802;6.772;2023-04-30T00:35:33;41.30;;;31.23;;
8323;SDS011;4199;50.802;6.772;2023-04-30T00:38:00;41.23;;;30.53;;
8323;SDS011;4199;50.802;6.772;2023-04-30T00:40:26;42.23;;;31.87;;
8323;SDS011;4199;50.802;6.772;2023-04-30T00:42:53;42.00;;;31.13;;
8323;SDS011;4199;50.802;6.772;2023-04-30T00:45:21;42.47;;;32.07;;
8323;SDS011;4199;50.802;6.772;2023-04-30T00:47:47;38.87;;;30.67;;
8323;SDS011;4199;50.802;6.772;2023-04-30T00:50:14;43.70;;;31.80;;
8323;SDS011;4199;50.802;6.772;2023-04-30T00:52:41;38.33;;;29.90;;
8323;SDS011;4199;50.802;6.772;2023-04-30T00:55:08;40.53;;;30.83;;
8323;SDS011;4199;50.802;6.772;2023-04-30T00:57:35;40.57;;;30.53;;
8323;SDS011;4199;50.802;6.772;2023-04-30T01:00:01;43.53;;;31.27;;
8323;SDS011;4199;50.802;6.772;2023-04-30T01:02:28;43.53;;;30.97;;
8323;SDS011;4199;50.802;6.772;2023-04-30T01:04:54;37.63;;;29.60;;
8323;SDS011;4199;50.802;6.772;2023-04-30T01:07:21;40.67;;;29.30;;
8323;SDS011;4199;50.802;6.772;2023-04-30T01:09:48;38.40;;;29.50;;
8323;SDS011;4199;50.802;6.772;2023-04-30T01:12:19;37.37;;;28.67;;
8323;SDS011;4199;50.802;6.772;2023-04-30T01:15:00;40.23;;;29.40;;
8323;SDS011;4199;50.802;6.772;2023-04-30T01:17:40;40.83;;;29.13;;
8323;SDS011;4199;50.802;6.772;2023-04-30T01:20:09;42.83;;;29.43;;
8323;SDS011;4199;50.802;6.772;2023-04-30T01:27:52;36.50;;;28.07;;
8323;SDS011;4199;50.802;6.772;2023-04-30T01:30:24;38.93;;;29.57;;
8323;SDS011;4199;50.802;6.772;2023-04-30T01:32:51;37.97;;;28.17;;
8323;SDS011;4199;50.802;6.772;2023-04-30T01:35:17;36.30;;;27.77;;
8323;SDS011;4199;50.802;6.772;2023-04-30T01:40:23;36.37;;;28.23;;
8323;SDS011;4199;50.802;6.772;2023-04-30T01:45:39;38.47;;;26.73;;
8323;SDS011;4199;50.802;6.772;2023-04-30T01:50:57;34.77;;;26.57;;
8323;SDS011;4199;50.802;6.772;2023-04-30T01:53:36;36.63;;;27.33;;
8323;SDS011;4199;50.802;6.772;2023-04-30T01:56:05;34.83;;;27.33;;
8323;SDS011;4199;50.802;6.772;2023-04-30T01:58:34;39.27;;;27.20;;
8323;SDS011;4199;50.802;6.772;2023-04-30T02:01:02;33.43;;;26.10;;
8323;SDS011;4199;50.802;6.772;2023-04-30T02:03:29;35.80;;;26.83;;
8323;SDS011;4199;50.802;6.772;2023-04-30T02:05:55;35.03;;;26.77;;
8323;SDS011;4199;50.802;6.772;2023-04-30T02:08:22;34.60;;;25.60;;
8323;SDS011;4199;50.802;6.772;2023-04-30T02:10:48;33.97;;;26.37;;
8323;SDS011;4199;50.802;6.772;2023-04-30T02:13:14;41.30;;;26.53;;
8323;SDS011;4199;50.802;6.772;2023-04-30T02:15:41;33.50;;;25.33;;
8323;SDS011;4199;50.802;6.772;2023-04-30T02:18:07;34.80;;;25.17;;
8323;SDS011;4199;50.802;6.772;2023-04-30T02:20:33;28.97;;;23.27;;
8323;SDS011;4199;50.802;6.772;2023-04-30T02:23:00;27.03;;;22.17;;
8323;SDS011;4199;50.802;6.772;2023-04-30T02:25:26;28.10;;;22.13;;
8323;SDS011;4199;50.802;6.772;2023-04-30T02:27:52;31.23;;;22.43;;
8323;SDS011;4199;50.802;6.772;2023-04-30T02:30:19;28.63;;;21.27;;
8323;SDS011;4199;50.802;6.772;2023-04-30T02:32:46;26.20;;;21.37;;
8323;SDS011;4199;50.802;6.772;2023-04-30T02:35:13;29.03;;;21.70;;
8323;SDS011;4199;50.802;6.772;2023-04-30T02:37:39;28.47;;;21.47;;
8323;SDS011;4199;50.802;6.772;2023-04-30T02:40:06;27.97;;;20.87;;
8323;SDS011;4199;50.802;6.772;2023-04-30T02:42:33;27.63;;;21.00;;
8323;SDS011;4199;50.802;6.772;2023-04-30T02:44:59;26.87;;;21.43;;
8323;SDS011;4199;50.802;6.772;2023-04-30T02:47:25;28.30;;;21.17;;
8323;SDS011;4199;50.802;6.772;2023-04-30T02:49:52;23.77;;;20.23;;
8323;SDS011;4199;50.802;6.772;2023-04-30T02:52:18;23.37;;;19.50;;
8323;SDS011;4199;50.802;6.772;2023-04-30T02:54:45;26.50;;;21.03;;
8323;SDS011;4199;50.802;6.772;2023-04-30T02:57:11;24.93;;;20.57;;
8323;SDS011;4199;50.802;6.772;2023-04-30T02:59:37;29.17;;;22.00;;
8323;SDS011;4199;50.802;6.772;2023-04-30T03:02:03;24.67;;;20.83;;
8323;SDS011;4199;50.802;6.772;2023-04-30T03:04:30;26.20;;;21.80;;
8323;SDS011;4199;50.802;6.772;2023-04-30T03:06:57;26.53;;;21.40;;
8323;SDS011;4199;50.802;6.772;2023-04-30T03:09:25;28.13;;;22.33;;
8323;SDS011;4199;50.802;6.772;2023-04-30T03:11:51;27.03;;;20.93;;
8323;SDS011;4199;50.802;6.772;2023-04-30T03:14:18;27.80;;;21.17;;
8323;SDS011;4199;50.802;6.772;2023-04-30T03:16:44;26.93;;;21.43;;
8323;SDS011;4199;50.802;6.772;2023-04-30T03:19:10;31.47;;;21.73;;
8323;SDS011;4199;50.802;6.772;2023-04-30T03:21:37;27.27;;;20.87;;
8323;SDS011;4199;50.802;6.772;2023-04-30T03:24:03;26.37;;;21.27;;
8323;SDS011;4199;50.802;6.772;2023-04-30T03:26:30;27.37;;;21.93;;
8323;SDS011;4199;50.802;6.772;2023-04-30T03:28:56;28.27;;;22.00;;
8323;SDS011;4199;50.802;6.772;2023-04-30T03:31:22;26.03;;;21.97;;
8323;SDS011;4199;50.802;6.772;2023-04-30T03:33:49;27.77;;;22.77;;
8323;SDS011;4199;50.802;6.772;2023-04-30T03:36:16;29.47;;;22.53;;
8323;SDS011;4199;50.802;6.772;2023-04-30T03:38:42;29.03;;;22.60;;
8323;SDS011;4199;50.802;6.772;2023-04-30T03:41:08;27.87;;;22.33;;
8323;SDS011;4199;50.802;6.772;2023-04-30T03:43:35;28.73;;;22.07;;
8323;SDS011;4199;50.802;6.772;2023-04-30T03:46:01;32.13;;;23.10;;
8323;SDS011;4199;50.802;6.772;2023-04-30T03:48:28;32.00;;;23.93;;
8323;SDS011;4199;50.802;6.772;2023-04-30T03:50:54;33.90;;;24.57;;
8323;SDS011;4199;50.802;6.772;2023-04-30T03:53:20;33.03;;;24.57;;
8323;SDS011;4199;50.802;6.772;2023-04-30T03:55:48;34.97;;;25.00;;
8323;SDS011;4199;50.802;6.772;2023-04-30T03:58:14;32.57;;;24.13;;
8323;SDS011;4199;50.802;6.772;2023-04-30T04:00:40;32.67;;;24.03;;
8323;SDS011;4199;50.802;6.772;2023-04-30T04:03:07;34.03;;;23.87;;
8323;SDS011;4199;50.802;6.772;2023-04-30T04:05:33;29.93;;;23.00;;
8323;SDS011;4199;50.802;6.772;2023-04-30T04:08:00;29.27;;;22.83;;
8323;SDS011;4199;50.802;6.772;2023-04-30T04:10:26;31.77;;;22.93;;
8323;SDS011;4199;50.802;6.772;2023-04-30T04:12:52;29.60;;;22.63;;
8323;SDS011;4199;50.802;6.772;2023-04-30T04:15:19;31.23;;;24.03;;
8323;SDS011;4199;50.802;6.772;2023-04-30T04:17:45;30.13;;;24.23;;
8323;SDS011;4199;50.802;6.772;2023-04-30T04:20:12;29.40;;;22.30;;
8323;SDS011;4199;50.802;6.772;2023-04-30T04:22:39;29.80;;;22.33;;
8323;SDS011;4199;50.802;6.772;2023-04-30T04:25:05;27.67;;;21.70;;
8323;SDS011;4199;50.802;6.772;2023-04-30T04:27:32;31.23;;;22.07;;
8323;SDS011;4199;50.802;6.772;2023-04-30T04:29:58;27.53;;;21.60;;
8323;SDS011;4199;50.802;6.772;2023-04-30T04:32:24;31.93;;;23.63;;
8323;SDS011;4199;50.802;6.772;2023-04-30T04:34:52;31.57;;;23.73;;
8323;SDS011;4199;50.802;6.772;2023-04-30T04:37:19;30.13;;;23.43;;
8323;SDS011;4199;50.802;6.772;2023-04-30T04:39:45;30.67;;;23.87;;
8323;SDS011;4199;50.802;6.772;2023-04-30T04:42:12;30.80;;;22.93;;
8323;SDS011;4199;50.802;6.772;2023-04-30T04:44:38;29.87;;;22.60;;
8323;SDS011;4199;50.802;6.772;2023-04-30T04:47:06;30.67;;;22.13;;
8323;SDS011;4199;50.802;6.772;2023-04-30T04:49:33;29.67;;;22.33;;
8323;SDS011;4199;50.802;6.772;2023-04-30T04:51:59;32.50;;;23.77;;
8323;SDS011;4199;50.802;6.772;2023-04-30T04:54:27;31.97;;;24.40;;
8323;SDS011;4199;50.802;6.772;2023-04-30T04:56:53;29.03;;;22.53;;
8323;SDS011;4199;50.802;6.772;2023-04-30T04:59:19;28.30;;;22.17;;
8323;SDS011;4199;50.802;6.772;2023-04-30T05:01:45;28.93;;;22.30;;
8323;SDS011;4199;50.802;6.772;2023-04-30T05:04:12;28.47;;;22.00;;
8323;SDS011;4199;50.802;6.772;2023-04-30T05:06:39;30.97;;;21.53;;
8323;SDS011;4199;50.802;6.772;2023-04-30T05:09:06;27.47;;;21.73;;
8323;SDS011;4199;50.802;6.772;2023-04-30T05:11:34;27.70;;;20.73;;
8323;SDS011;4199;50.802;6.772;2023-04-30T05:14:01;26.03;;;20.40;;
8323;SDS011;4199;50.802;6.772;2023-04-30T05:16:27;25.30;;;21.10;;
8323;SDS011;4199;50.802;6.772;2023-04-30T05:18:53;67.53;;;48.23;;
8323;SDS011;4199;50.802;6.772;2023-04-30T05:21:20;115.53;;;81.87;;
8323;SDS011;4199;50.802;6.772;2023-04-30T05:23:46;31.30;;;23.27;;
8323;SDS011;4199;50.802;6.772;2023-04-30T05:26:12;31.23;;;22.40;;
8323;SDS011;4199;50.802;6.772;2023-04-30T05:28:38;29.07;;;22.10;;
8323;SDS011;4199;50.802;6.772;2023-04-30T05:31:05;27.67;;;21.70;;
8323;SDS011;4199;50.802;6.772;2023-04-30T05:33:31;26.37;;;20.30;;
8323;SDS011;4199;50.802;6.772;2023-04-30T05:35:58;25.67;;;21.30;;
8323;SDS011;4199;50.802;6.772;2023-04-30T05:38:25;26.20;;;21.37;;
8323;SDS011;4199;50.802;6.772;2023-04-30T05:40:51;25.57;;;21.00;;
8323;SDS011;4199;50.802;6.772;2023-04-30T05:43:17;25.33;;;20.10;;
8323;SDS011;4199;50.802;6.772;2023-04-30T05:45:43;23.37;;;20.27;;
8323;SDS011;4199;50.802;6.772;2023-04-30T05:48:10;23.80;;;20.40;;
8323;SDS011;4199;50.802;6.772;2023-04-30T05:50:36;24.50;;;20.07;;
8323;SDS011;4199;50.802;6.772;2023-04-30T05:53:02;21.57;;;19.27;;
8323;SDS011;4199;50.802;6.772;2023-04-30T05:55:29;19.87;;;17.77;;
8323;SDS011;4199;50.802;6.772;2023-04-30T05:57:59;20.37;;;18.17;;
8323;SDS011;4199;50.802;6.772;2023-04-30T06:00:25;21.87;;;18.93;;
8323;SDS011;4199;50.802;6.772;2023-04-30T06:02:52;23.53;;;19.37;;
8323;SDS011;4199;50.802;6.772;2023-04-30T06:05:18;21.37;;;18.50;;
8323;SDS011;4199;50.802;6.772;2023-04-30T06:07:45;21.33;;;18.57;;
8323;SDS011;4199;50.802;6.772;2023-04-30T06:10:11;193.97;;;150.03;;
8323;SDS011;4199;50.802;6.772;2023-04-30T06:12:38;31.93;;;28.10;;
8323;SDS011;4199;50.802;6.772;2023-04-30T06:15:05;21.73;;;19.37;;
8323;SDS011;4199;50.802;6.772;2023-04-30T06:17:31;19.73;;;17.63;;
8323;SDS011;4199;50.802;6.772;2023-04-30T06:19:58;20.00;;;17.90;;
8323;SDS011;4199;50.802;6.772;2023-04-30T06:22:27;19.13;;;17.03;;
8323;SDS011;4199;50.802;6.772;2023-04-30T06:24:54;52.07;;;40.63;;
8323;SDS011;4199;50.802;6.772;2023-04-30T06:27:23;37.30;;;33.17;;
8323;SDS011;4199;50.802;6.772;2023-04-30T06:29:50;25.67;;;22.07;;
8323;SDS011;4199;50.802;6.772;2023-04-30T06:32:16;20.90;;;18.70;;
8323;SDS011;4199;50.802;6.772;2023-04-30T06:34:42;20.93;;;17.80;;
8323;SDS011;4199;50.802;6.772;2023-04-30T06:37:08;22.47;;;20.07;;
8323;SDS011;4199;50.802;6.772;2023-04-30T06:39:35;24.30;;;20.03;;
8323;SDS011;4199;50.802;6.772;2023-04-30T06:42:01;25.23;;;21.47;;
8323;SDS011;4199;50.802;6.772;2023-04-30T06:44:27;26.80;;;22.67;;
8323;SDS011;4199;50.802;6.772;2023-04-30T06:46:54;49.23;;;39.70;;
8323;SDS011;4199;50.802;6.772;2023-04-30T06:49:20;61.47;;;48.57;;
8323;SDS011;4199;50.802;6.772;2023-04-30T06:51:46;40.30;;;32.60;;
8323;SDS011;4199;50.802;6.772;2023-04-30T06:54:12;34.43;;;28.03;;
8323;SDS011;4199;50.802;6.772;2023-04-30T06:56:39;33.07;;;26.67;;
8323;SDS011;4199;50.802;6.772;2023-04-30T06:59:05;33.33;;;25.30;;
8323;SDS011;4199;50.802;6.772;2023-04-30T07:01:32;30.53;;;24.03;;
8323;SDS011;4199;50.802;6.772;2023-04-30T07:03:58;29.57;;;24.73;;
8323;SDS011;4199;50.802;6.772;2023-04-30T07:06:25;30.50;;;25.17;;
8323;SDS011;4199;50.802;6.772;2023-04-30T07:08:52;31.93;;;25.20;;
8323;SDS011;4199;50.802;6.772;2023-04-30T07:11:18;27.80;;;23.80;;
8323;SDS011;4199;50.802;6.772;2023-04-30T07:13:44;30.07;;;24.23;;
8323;SDS011;4199;50.802;6.772;2023-04-30T07:16:11;28.20;;;23.63;;
8323;SDS011;4199;50.802;6.772;2023-04-30T07:18:37;57.17;;;45.43;;
8323;SDS011;4199;50.802;6.772;2023-04-30T07:21:04;45.03;;;37.03;;
8323;SDS011;4199;50.802;6.772;2023-04-30T07:23:30;31.70;;;26.17;;
8323;SDS011;4199;50.802;6.772;2023-04-30T07:25:57;30.87;;;25.27;;
8323;SDS011;4199;50.802;6.772;2023-04-30T07:28:23;28.83;;;24.10;;
8323;SDS011;4199;50.802;6.772;2023-04-30T07:30:49;30.10;;;24.50;;
8323;SDS011;4199;50.802;6.772;2023-04-30T07:33:16;27.83;;;24.27;;
8323;SDS011;4199;50.802;6.772;2023-04-30T07:35:42;28.17;;;23.93;;
8323;SDS011;4199;50.802;6.772;2023-04-30T07:38:09;27.87;;;22.97;;
8323;SDS011;4199;50.802;6.772;2023-04-30T07:40:35;25.80;;;22.80;;
8323;SDS011;4199;50.802;6.772;2023-04-30T07:43:02;26.43;;;22.73;;
8323;SDS011;4199;50.802;6.772;2023-04-30T07:45:29;26.20;;;23.10;;
8323;SDS011;4199;50.802;6.772;2023-04-30T07:47:56;29.93;;;23.13;;
8323;SDS011;4199;50.802;6.772;2023-04-30T07:50:23;29.07;;;24.90;;
8323;SDS011;4199;50.802;6.772;2023-04-30T07:52:49;38.20;;;32.83;;
8323;SDS011;4199;50.802;6.772;2023-04-30T07:55:16;90.73;;;73.10;;
8323;SDS011;4199;50.802;6.772;2023-04-30T07:57:42;38.53;;;32.10;;
8323;SDS011;4199;50.802;6.772;2023-04-30T08:00:08;28.63;;;24.03;;
8323;SDS011;4199;50.802;6.772;2023-04-30T08:02:35;28.77;;;22.93;;
8323;SDS011;4199;50.802;6.772;2023-04-30T08:05:02;28.57;;;23.23;;
8323;SDS011;4199;50.802;6.772;2023-04-30T08:07:29;26.00;;;21.70;;
8323;SDS011;4199;50.802;6.772;2023-04-30T08:09:55;27.97;;;22.97;;
8323;SDS011;4199;50.802;6.772;2023-04-30T08:12:22;27.03;;;22.63;;
8323;SDS011;4199;50.802;6.772;2023-04-30T08:14:48;24.57;;;21.20;;
8323;SDS011;4199;50.802;6.772;2023-04-30T08:17:15;23.27;;;19.03;;
8323;SDS011;4199;50.802;6.772;2023-04-30T08:19:41;52.70;;;42.40;;
8323;SDS011;4199;50.802;6.772;2023-04-30T08:22:07;89.77;;;73.20;;
8323;SDS011;4199;50.802;6.772;2023-04-30T08:24:34;26.23;;;22.97;;
8323;SDS011;4199;50.802;6.772;2023-04-30T08:27:00;21.00;;;18.43;;
8323;SDS011;4199;50.802;6.772;2023-04-30T08:29:29;21.47;;;16.93;;
8323;SDS011;4199;50.802;6.772;2023-04-30T08:31:55;18.43;;;16.40;;
8323;SDS011;4199;50.802;6.772;2023-04-30T08:34:23;19.97;;;17.37;;
8323;SDS011;4199;50.802;6.772;2023-04-30T08:36:50;18.17;;;16.10;;
8323;SDS011;4199;50.802;6.772;2023-04-30T08:39:16;19.33;;;16.30;;
8323;SDS011;4199;50.802;6.772;2023-04-30T08:41:42;17.93;;;16.03;;
8323;SDS011;4199;50.802;6.772;2023-04-30T08:44:11;21.03;;;17.90;;
8323;SDS011;4199;50.802;6.772;2023-04-30T08:46:38;18.80;;;16.90;;
8323;SDS011;4199;50.802;6.772;2023-04-30T08:49:05;19.27;;;16.23;;
8323;SDS011;4199;50.802;6.772;2023-04-30T08:51:32;19.43;;;15.87;;
8323;SDS011;4199;50.802;6.772;2023-04-30T08:53:58;14.53;;;13.03;;
8323;SDS011;4199;50.802;6.772;2023-04-30T08:56:25;18.73;;;16.73;;
8323;SDS011;4199;50.802;6.772;2023-04-30T08:58:51;18.70;;;15.67;;
8323;SDS011;4199;50.802;6.772;2023-04-30T09:01:17;20.10;;;17.10;;
8323;SDS011;4199;50.802;6.772;2023-04-30T09:03:44;19.37;;;16.33;;
8323;SDS011;4199;50.802;6.772;2023-04-30T09:06:14;16.83;;;15.00;;
8323;SDS011;4199;50.802;6.772;2023-04-30T09:08:44;16.73;;;13.43;;
8323;SDS011;4199;50.802;6.772;2023-04-30T09:11:21;14.10;;;12.60;;
8323;SDS011;4199;50.802;6.772;2023-04-30T09:13:48;13.37;;;10.77;;
8323;SDS011;4199;50.802;6.772;2023-04-30T09:16:15;12.83;;;11.43;;
8323;SDS011;4199;50.802;6.772;2023-04-30T09:18:41;10.03;;;9.03;;
8323;SDS011;4199;50.802;6.772;2023-04-30T09:21:07;9.63;;;8.27;;
8323;SDS011;4199;50.802;6.772;2023-04-30T09:23:34;9.10;;;7.50;;
8323;SDS011;4199;50.802;6.772;2023-04-30T09:26:00;5.33;;;4.77;;
8323;SDS011;4199;50.802;6.772;2023-04-30T09:28:27;4.83;;;4.33;;
8323;SDS011;4199;50.802;6.772;2023-04-30T09:30:55;3.40;;;3.10;;
8323;SDS011;4199;50.802;6.772;2023-04-30T09:33:22;2.87;;;2.40;;
8323;SDS011;4199;50.802;6.772;2023-04-30T09:35:48;3.03;;;2.73;;
8323;SDS011;4199;50.802;6.772;2023-04-30T09:38:28;2.80;;;2.60;;
8323;SDS011;4199;50.802;6.772;2023-04-30T09:40:56;3.30;;;2.70;;
8323;SDS011;4199;50.802;6.772;2023-04-30T09:43:22;3.07;;;2.77;;
8323;SDS011;4199;50.802;6.772;2023-04-30T09:45:50;2.90;;;2.70;;
8323;SDS011;4199;50.802;6.772;2023-04-30T09:48:18;2.00;;;1.50;;
8323;SDS011;4199;50.802;6.772;2023-04-30T09:50:46;1.97;;;1.83;;
8323;SDS011;4199;50.802;6.772;2023-04-30T09:53:13;1.40;;;1.30;;
8323;SDS011;4199;50.802;6.772;2023-04-30T09:55:41;2.23;;;2.13;;
8323;SDS011;4199;50.802;6.772;2023-04-30T09:58:09;2.20;;;2.00;;
8323;SDS011;4199;50.802;6.772;2023-04-30T10:00:36;2.47;;;2.27;;
8323;SDS011;4199;50.802;6.772;2023-04-30T10:03:04;3.30;;;2.80;;
8323;SDS011;4199;50.802;6.772;2023-04-30T10:05:33;2.70;;;2.50;;
8323;SDS011;4199;50.802;6.772;2023-04-30T10:08:01;7.37;;;5.00;;
8323;SDS011;4199;50.802;6.772;2023-04-30T10:10:28;4.60;;;4.20;;
8323;SDS011;4199;50.802;6.772;2023-04-30T10:12:58;4.80;;;4.40;;
8323;SDS011;4199;50.802;6.772;2023-04-30T10:15:33;3.17;;;2.87;;
8323;SDS011;4199;50.802;6.772;2023-04-30T10:18:02;2.20;;;1.80;;
8323;SDS011;4199;50.802;6.772;2023-04-30T10:20:30;1.80;;;1.70;;
8323;SDS011;4199;50.802;6.772;2023-04-30T10:22:57;2.00;;;1.80;;
8323;SDS011;4199;50.802;6.772;2023-04-30T10:25:23;1.33;;;1.33;;
8323;SDS011;4199;50.802;6.772;2023-04-30T10:27:51;1.77;;;1.67;;
8323;SDS011;4199;50.802;6.772;2023-04-30T10:30:17;2.00;;;1.90;;
8323;SDS011;4199;50.802;6.772;2023-04-30T10:32:48;2.80;;;2.57;;
8323;SDS011;4199;50.802;6.772;2023-04-30T10:35:18;3.63;;;3.33;;
8323;SDS011;4199;50.802;6.772;2023-04-30T10:40:25;4.60;;;4.20;;
8323;SDS011;4199;50.802;6.772;2023-04-30T10:42:52;4.27;;;3.87;;
8323;SDS011;4199;50.802;6.772;2023-04-30T10:45:33;3.53;;;3.17;;
8323;SDS011;4199;50.802;6.772;2023-04-30T10:48:00;4.37;;;3.30;;
8323;SDS011;4199;50.802;6.772;2023-04-30T10:50:28;3.33;;;3.03;;
8323;SDS011;4199;50.802;6.772;2023-04-30T10:53:04;3.40;;;2.40;;
8323;SDS011;4199;50.802;6.772;2023-04-30T10:55:30;3.10;;;2.80;;
8323;SDS011;4199;50.802;6.772;2023-04-30T10:57:57;4.17;;;3.00;;
8323;SDS011;4199;50.802;6.772;2023-04-30T11:00:24;3.30;;;2.90;;
8323;SDS011;4199;50.802;6.772;2023-04-30T11:02:55;3.00;;;2.80;;
8323;SDS011;4199;50.802;6.772;2023-04-30T11:05:22;5.10;;;3.13;;
8323;SDS011;4199;50.802;6.772;2023-04-30T11:07:58;6.00;;;2.80;;
8323;SDS011;4199;50.802;6.772;2023-04-30T11:10:26;3.37;;;2.60;;
8323;SDS011;4199;50.802;6.772;2023-04-30T11:12:53;4.80;;;2.60;;
8323;SDS011;4199;50.802;6.772;2023-04-30T11:15:20;3.33;;;3.13;;
8323;SDS011;4199;50.802;6.772;2023-04-30T11:17:49;2.90;;;2.70;;
8323;SDS011;4199;50.802;6.772;2023-04-30T11:20:19;3.57;;;2.60;;
8323;SDS011;4199;50.802;6.772;2023-04-30T11:22:46;2.90;;;2.70;;
8323;SDS011;4199;50.802;6.772;2023-04-30T11:25:17;5.30;;;2.63;;
8323;SDS011;4199;50.802;6.772;2023-04-30T11:27:44;3.87;;;2.30;;
8323;SDS011;4199;50.802;6.772;2023-04-30T11:30:11;2.43;;;2.07;;
8323;SDS011;4199;50.802;6.772;2023-04-30T11:32:41;3.07;;;2.60;;
8323;SDS011;4199;50.802;6.772;2023-04-30T11:35:08;4.60;;;3.10;;
8323;SDS011;4199;50.802;6.772;2023-04-30T11:37:36;2.90;;;2.70;;
8323;SDS011;4199;50.802;6.772;2023-04-30T11:40:03;3.00;;;2.63;;
8323;SDS011;4199;50.802;6.772;2023-04-30T11:42:31;2.50;;;2.40;;
8323;SDS011;4199;50.802;6.772;2023-04-30T11:45:03;3.00;;;2.80;;
8323;SDS011;4199;50.802;6.772;2023-04-30T11:50:09;3.60;;;2.90;;
8323;SDS011;4199;50.802;6.772;2023-04-30T11:52:37;2.70;;;2.50;;
8323;SDS011;4199;50.802;6.772;2023-04-30T11:55:04;2.47;;;2.27;;
8323;SDS011;4199;50.802;6.772;2023-04-30T11:57:38;2.87;;;2.67;;
8323;SDS011;4199;50.802;6.772;2023-04-30T12:00:48;3.70;;;2.70;;
8323;SDS011;4199;50.802;6.772;2023-04-30T12:02:56;3.37;;;2.70;;
8323;SDS011;4199;50.802;6.772;2023-04-30T12:05:23;6.90;;;2.03;;
8323;SDS011;4199;50.802;6.772;2023-04-30T12:07:51;1.50;;;1.40;;
8323;SDS011;4199;50.802;6.772;2023-04-30T12:10:18;2.83;;;1.87;;
8323;SDS011;4199;50.802;6.772;2023-04-30T12:12:44;2.03;;;1.80;;
8323;SDS011;4199;50.802;6.772;2023-04-30T12:15:11;1.90;;;1.80;;
8323;SDS011;4199;50.802;6.772;2023-04-30T12:17:38;1.52;;;1.42;;
8323;SDS011;4199;50.802;6.772;2023-04-30T12:20:05;3.20;;;1.70;;
8323;SDS011;4199;50.802;6.772;2023-04-30T12:22:31;3.20;;;1.60;;
8323;SDS011;4199;50.802;6.772;2023-04-30T12:24:58;1.33;;;1.30;;
8323;SDS011;4199;50.802;6.772;2023-04-30T12:27:25;1.33;;;1.23;;
8323;SDS011;4199;50.802;6.772;2023-04-30T12:29:51;1.53;;;1.20;;
8323;SDS011;4199;50.802;6.772;2023-04-30T12:32:20;1.37;;;1.27;;
8323;SDS011;4199;50.802;6.772;2023-04-30T12:34:47;1.50;;;1.40;;
8323;SDS011;4199;50.802;6.772;2023-04-30T12:37:14;1.77;;;1.67;;
8323;SDS011;4199;50.802;6.772;2023-04-30T12:39:41;1.27;;;1.17;;
8323;SDS011;4199;50.802;6.772;2023-04-30T12:42:08;1.30;;;1.20;;
8323;SDS011;4199;50.802;6.772;2023-04-30T12:44:42;1.10;;;1.10;;
8323;SDS011;4199;50.802;6.772;2023-04-30T12:47:09;1.30;;;1.30;;
8323;SDS011;4199;50.802;6.772;2023-04-30T12:49:35;1.35;;;1.13;;
8323;SDS011;4199;50.802;6.772;2023-04-30T12:52:03;1.17;;;1.10;;
8323;SDS011;4199;50.802;6.772;2023-04-30T12:54:30;1.05;;;1.05;;
8323;SDS011;4199;50.802;6.772;2023-04-30T12:59:25;1.30;;;0.90;;
8323;SDS011;4199;50.802;6.772;2023-04-30T13:01:51;1.00;;;1.00;;
8323;SDS011;4199;50.802;6.772;2023-04-30T13:04:20;0.73;;;0.60;;
8323;SDS011;4199;50.802;6.772;2023-04-30T13:06:46;0.90;;;0.90;;
8323;SDS011;4199;50.802;6.772;2023-04-30T13:09:13;0.75;;;0.75;;
8323;SDS011;4199;50.802;6.772;2023-04-30T13:11:39;0.90;;;0.90;;
8323;SDS011;4199;50.802;6.772;2023-04-30T13:14:05;1.58;;;0.95;;
8323;SDS011;4199;50.802;6.772;2023-04-30T13:16:31;1.00;;;1.00;;
8323;SDS011;4199;50.802;6.772;2023-04-30T13:18:58;0.80;;;0.80;;
8323;SDS011;4199;50.802;6.772;2023-04-30T13:21:25;1.17;;;0.70;;
8323;SDS011;4199;50.802;6.772;2023-04-30T13:23:52;1.42;;;1.33;;
8323;SDS011;4199;50.802;6.772;2023-04-30T13:26:21;0.98;;;0.98;;
8323;SDS011;4199;50.802;6.772;2023-04-30T13:28:48;0.82;;;0.70;;
8323;SDS011;4199;50.802;6.772;2023-04-30T13:31:14;1.10;;;1.00;;
8323;SDS011;4199;50.802;6.772;2023-04-30T13:33:41;0.80;;;0.80;;
8323;SDS011;4199;50.802;6.772;2023-04-30T13:36:07;0.88;;;0.88;;
8323;SDS011;4199;50.802;6.772;2023-04-30T13:38:34;0.73;;;0.73;;
8323;SDS011;4199;50.802;6.772;2023-04-30T13:41:00;0.85;;;0.80;;
8323;SDS011;4199;50.802;6.772;2023-04-30T13:43:26;0.90;;;0.90;;
8323;SDS011;4199;50.802;6.772;2023-04-30T13:45:52;1.20;;;1.20;;
8323;SDS011;4199;50.802;6.772;2023-04-30T13:48:19;0.80;;;0.80;;
8323;SDS011;4199;50.802;6.772;2023-04-30T13:50:45;0.70;;;0.70;;
8323;SDS011;4199;50.802;6.772;2023-04-30T13:53:11;0.88;;;0.88;;
8323;SDS011;4199;50.802;6.772;2023-04-30T13:55:38;1.08;;;1.00;;
8323;SDS011;4199;50.802;6.772;2023-04-30T13:58:04;0.98;;;0.90;;
8323;SDS011;4199;50.802;6.772;2023-04-30T14:00:30;0.68;;;0.60;;
8323;SDS011;4199;50.802;6.772;2023-04-30T14:02:57;0.60;;;0.60;;
8323;SDS011;4199;50.802;6.772;2023-04-30T14:05:23;0.60;;;0.60;;
8323;SDS011;4199;50.802;6.772;2023-04-30T14:07:49;0.60;;;0.60;;
8323;SDS011;4199;50.802;6.772;2023-04-30T14:10:16;0.45;;;0.45;;
8323;SDS011;4199;50.802;6.772;2023-04-30T14:12:42;1.02;;;1.02;;
8323;SDS011;4199;50.802;6.772;2023-04-30T14:15:09;1.13;;;1.10;;
8323;SDS011;4199;50.802;6.772;2023-04-30T14:17:35;0.70;;;0.70;;
8323;SDS011;4199;50.802;6.772;2023-04-30T14:20:01;0.60;;;0.60;;
8323;SDS011;4199;50.802;6.772;2023-04-30T14:22:29;2.17;;;2.03;;
8323;SDS011;4199;50.802;6.772;2023-04-30T14:24:56;0.70;;;0.70;;
8323;SDS011;4199;50.802;6.772;2023-04-30T14:27:22;2.95;;;2.08;;
8323;SDS011;4199;50.802;6.772;2023-04-30T14:29:49;2.72;;;1.60;;
8323;SDS011;4199;50.802;6.772;2023-04-30T14:32:16;1.30;;;1.00;;
8323;SDS011;4199;50.802;6.772;2023-04-30T14:34:43;0.60;;;0.60;;
8323;SDS011;4199;50.802;6.772;2023-04-30T14:37:09;1.75;;;1.65;;
8323;SDS011;4199;50.802;6.772;2023-04-30T14:39:36;1.00;;;1.00;;
8323;SDS011;4199;50.802;6.772;2023-04-30T14:42:02;0.80;;;0.80;;
8323;SDS011;4199;50.802;6.772;2023-04-30T14:44:29;0.90;;;0.80;;
8323;SDS011;4199;50.802;6.772;2023-04-30T14:46:55;0.60;;;0.60;;
8323;SDS011;4199;50.802;6.772;2023-04-30T14:49:21;0.70;;;0.70;;
8323;SDS011;4199;50.802;6.772;2023-04-30T14:51:48;0.73;;;0.73;;
8323;SDS011;4199;50.802;6.772;2023-04-30T14:54:14;0.70;;;0.70;;
8323;SDS011;4199;50.802;6.772;2023-04-30T14:56:41;0.90;;;0.90;;
8323;SDS011;4199;50.802;6.772;2023-04-30T14:59:07;0.65;;;0.65;;
8323;SDS011;4199;50.802;6.772;2023-04-30T15:01:33;1.75;;;1.33;;
8323;SDS011;4199;50.802;6.772;2023-04-30T15:04:00;1.02;;;1.00;;
8323;SDS011;4199;50.802;6.772;2023-04-30T15:06:27;1.40;;;1.30;;
8323;SDS011;4199;50.802;6.772;2023-04-30T15:08:53;3.47;;;3.17;;
8323;SDS011;4199;50.802;6.772;2023-04-30T15:11:19;2.92;;;2.72;;
8323;SDS011;4199;50.802;6.772;2023-04-30T15:13:46;1.02;;;0.93;;
8323;SDS011;4199;50.802;6.772;2023-04-30T15:16:12;1.08;;;0.93;;
8323;SDS011;4199;50.802;6.772;2023-04-30T15:18:38;0.77;;;0.77;;